sensor_id;sensor_type;location;lat;lon;timestamp;pressure;altitude;pressure_sealevel;temperature;humidity
17521;BME280;8878;-33.370;-70.552;2024-03-23T00:51:35;92193.44;;;21.41;61.51
17521;BME280;8878;-33.370;-70.552;2024-03-23T00:54:03;92192.97;;;21.39;62.33
17521;BME280;8878;-33.370;-70.552;2024-03-23T00:56:33;92204.13;;;21.29;63.45
17521;BME280;8878;-33.370;-70.552;2024-03-23T00:59:01;92190.47;;;21.22;65.24
17521;BME280;8878;-33.370;-70.552;2024-03-23T01:01:31;92200.13;;;21.15;65.37
17521;BME280;8878;-33.370;-70.552;2024-03-23T01:04:00;92203.22;;;21.04;66.48
17521;BME280;8878;-33.370;-70.552;2024-03-23T01:06:29;92204.84;;;20.97;66.02
17521;BME280;8878;-33.370;-70.552;2024-03-23T01:09:00;92216.09;;;20.90;66.44
17521;BME280;8878;-33.370;-70.552;2024-03-23T01:11:28;92222.56;;;20.89;65.19
17521;BME280;8878;-33.370;-70.552;2024-03-23T01:13:58;92224.34;;;20.85;64.55
17521;BME280;8878;-33.370;-70.552;2024-03-23T01:16:26;92231.41;;;20.90;65.30
17521;BME280;8878;-33.370;-70.552;2024-03-23T01:18:56;92228.59;;;20.86;65.21
17521;BME280;8878;-33.370;-70.552;2024-03-23T01:21:24;92226.56;;;20.83;65.45
17521;BME280;8878;-33.370;-70.552;2024-03-23T01:23:53;92220.63;;;20.78;64.81
17521;BME280;8878;-33.370;-70.552;2024-03-23T01:26:23;92226.28;;;20.76;64.99
17521;BME280;8878;-33.370;-70.552;2024-03-23T01:28:53;92232.06;;;20.66;65.99
17521;BME280;8878;-33.370;-70.552;2024-03-23T01:31:21;92234.91;;;20.61;66.71
17521;BME280;8878;-33.370;-70.552;2024-03-23T01:33:50;92227.06;;;20.56;66.25
17521;BME280;8878;-33.370;-70.552;2024-03-23T01:36:19;92231.94;;;20.54;67.00
17521;BME280;8878;-33.370;-70.552;2024-03-23T01:38:48;92239.56;;;20.52;66.23
17521;BME280;8878;-33.370;-70.552;2024-03-23T01:41:16;92237.50;;;20.49;66.55
17521;BME280;8878;-33.370;-70.552;2024-03-23T01:43:48;92250.91;;;20.49;64.87
17521;BME280;8878;-33.370;-70.552;2024-03-23T01:46:16;92267.56;;;20.54;66.12
17521;BME280;8878;-33.370;-70.552;2024-03-23T01:48:46;92261.91;;;20.56;67.44
17521;BME280;8878;-33.370;-70.552;2024-03-23T01:51:15;92269.03;;;20.52;67.67
17521;BME280;8878;-33.370;-70.552;2024-03-23T01:53:45;92267.69;;;20.37;70.19
17521;BME280;8878;-33.370;-70.552;2024-03-23T01:56:13;92271.16;;;20.29;70.22
17521;BME280;8878;-33.370;-70.552;2024-03-23T01:58:43;92281.25;;;20.23;70.52
17521;BME280;8878;-33.370;-70.552;2024-03-23T02:01:14;92280.63;;;20.18;71.27
17521;BME280;8878;-33.370;-70.552;2024-03-23T02:03:43;92284.00;;;20.06;69.98
17521;BME280;8878;-33.370;-70.552;2024-03-23T02:06:11;92282.88;;;20.07;71.35
17521;BME280;8878;-33.370;-70.552;2024-03-23T02:08:41;92282.09;;;20.07;71.90
17521;BME280;8878;-33.370;-70.552;2024-03-23T02:11:09;92283.88;;;20.03;72.47
17521;BME280;8878;-33.370;-70.552;2024-03-23T02:13:39;92271.41;;;19.98;72.40
17521;BME280;8878;-33.370;-70.552;2024-03-23T02:16:07;92257.09;;;19.94;70.13
17521;BME280;8878;-33.370;-70.552;2024-03-23T02:18:38;92243.91;;;19.89;67.25
17521;BME280;8878;-33.370;-70.552;2024-03-23T02:21:06;92245.31;;;19.86;66.79
17521;BME280;8878;-33.370;-70.552;2024-03-23T02:23:38;92247.50;;;19.93;69.23
17521;BME280;8878;-33.370;-70.552;2024-03-23T02:26:06;92244.94;;;19.97;69.67
17521;BME280;8878;-33.370;-70.552;2024-03-23T02:28:35;92237.41;;;19.90;74.53
17521;BME280;8878;-33.370;-70.552;2024-03-23T02:31:03;92224.69;;;19.78;73.12
17521;BME280;8878;-33.370;-70.552;2024-03-23T02:33:33;92215.75;;;19.74;79.46
17521;BME280;8878;-33.370;-70.552;2024-03-23T02:36:05;92218.94;;;19.68;77.69
17521;BME280;8878;-33.370;-70.552;2024-03-23T02:38:36;92220.16;;;19.62;71.52
17521;BME280;8878;-33.370;-70.552;2024-03-23T02:41:05;92212.78;;;19.67;76.71
17521;BME280;8878;-33.370;-70.552;2024-03-23T02:43:34;92217.00;;;19.68;78.11
17521;BME280;8878;-33.370;-70.552;2024-03-23T02:46:03;92209.31;;;19.67;78.76
17521;BME280;8878;-33.370;-70.552;2024-03-23T02:48:32;92208.22;;;19.68;75.86
17521;BME280;8878;-33.370;-70.552;2024-03-23T02:51:00;92207.09;;;19.69;78.80
17521;BME280;8878;-33.370;-70.552;2024-03-23T02:53:30;92204.00;;;19.49;74.81
17521;BME280;8878;-33.370;-70.552;2024-03-23T02:56:00;92196.28;;;19.39;78.12
17521;BME280;8878;-33.370;-70.552;2024-03-23T02:58:30;92205.59;;;19.16;76.81
17521;BME280;8878;-33.370;-70.552;2024-03-23T03:00:58;92201.19;;;19.11;76.09
17521;BME280;8878;-33.370;-70.552;2024-03-23T03:03:27;92202.94;;;19.25;76.12
17521;BME280;8878;-33.370;-70.552;2024-03-23T03:05:56;92205.56;;;19.33;77.71
17521;BME280;8878;-33.370;-70.552;2024-03-23T03:08:26;92214.38;;;19.34;76.86
17521;BME280;8878;-33.370;-70.552;2024-03-23T03:10:54;92216.13;;;19.30;74.91
17521;BME280;8878;-33.370;-70.552;2024-03-23T03:13:25;92214.72;;;19.32;77.51
17521;BME280;8878;-33.370;-70.552;2024-03-23T03:15:54;92224.16;;;19.30;79.67
17521;BME280;8878;-33.370;-70.552;2024-03-23T03:18:23;92220.69;;;19.21;82.27
17521;BME280;8878;-33.370;-70.552;2024-03-23T03:20:55;92226.03;;;19.12;80.86
17521;BME280;8878;-33.370;-70.552;2024-03-23T03:23:24;92227.00;;;19.07;80.63
17521;BME280;8878;-33.370;-70.552;2024-03-23T03:25:53;92234.25;;;19.15;78.58
17521;BME280;8878;-33.370;-70.552;2024-03-23T03:28:24;92234.06;;;19.12;75.71
17521;BME280;8878;-33.370;-70.552;2024-03-23T03:30:57;92235.34;;;19.14;78.09
17521;BME280;8878;-33.370;-70.552;2024-03-23T03:33:27;92231.09;;;19.05;79.12
17521;BME280;8878;-33.370;-70.552;2024-03-23T03:35:55;92226.84;;;19.04;80.07
17521;BME280;8878;-33.370;-70.552;2024-03-23T03:38:25;92226.53;;;18.97;78.19
17521;BME280;8878;-33.370;-70.552;2024-03-23T03:40:53;92225.09;;;18.99;76.22
17521;BME280;8878;-33.370;-70.552;2024-03-23T03:43:24;92236.91;;;18.98;78.60
17521;BME280;8878;-33.370;-70.552;2024-03-23T03:45:53;92235.97;;;18.94;74.83
17521;BME280;8878;-33.370;-70.552;2024-03-23T03:48:23;92231.25;;;18.83;82.55
17521;BME280;8878;-33.370;-70.552;2024-03-23T03:50:52;92229.97;;;18.71;82.54
17521;BME280;8878;-33.370;-70.552;2024-03-23T03:53:22;92224.16;;;18.69;82.08
17521;BME280;8878;-33.370;-70.552;2024-03-23T03:55:50;92218.34;;;18.67;77.82
17521;BME280;8878;-33.370;-70.552;2024-03-23T03:58:20;92214.72;;;18.72;77.77
17521;BME280;8878;-33.370;-70.552;2024-03-23T04:00:50;92210.00;;;18.77;83.37
17521;BME280;8878;-33.370;-70.552;2024-03-23T04:03:19;92204.66;;;18.77;79.87
17521;BME280;8878;-33.370;-70.552;2024-03-23T04:05:51;92198.69;;;18.72;78.87
17521;BME280;8878;-33.370;-70.552;2024-03-23T04:08:21;92194.13;;;18.72;75.19
17521;BME280;8878;-33.370;-70.552;2024-03-23T04:10:49;92188.50;;;18.74;73.66
17521;BME280;8878;-33.370;-70.552;2024-03-23T04:13:19;92179.03;;;18.76;73.98
17521;BME280;8878;-33.370;-70.552;2024-03-23T04:15:54;92188.63;;;18.77;74.25
17521;BME280;8878;-33.370;-70.552;2024-03-23T04:18:24;92184.22;;;18.64;75.94
17521;BME280;8878;-33.370;-70.552;2024-03-23T04:20:52;92184.38;;;18.59;77.18
17521;BME280;8878;-33.370;-70.552;2024-03-23T04:23:21;92193.34;;;18.63;81.00
17521;BME280;8878;-33.370;-70.552;2024-03-23T04:25:49;92179.66;;;18.56;76.20
17521;BME280;8878;-33.370;-70.552;2024-03-23T04:28:20;92182.63;;;18.46;78.06
17521;BME280;8878;-33.370;-70.552;2024-03-23T04:30:49;92179.94;;;18.46;77.48
17521;BME280;8878;-33.370;-70.552;2024-03-23T04:33:20;92182.63;;;18.46;81.39
17521;BME280;8878;-33.370;-70.552;2024-03-23T04:35:50;92174.13;;;18.44;79.17
17521;BME280;8878;-33.370;-70.552;2024-03-23T04:38:19;92180.59;;;18.52;78.52
17521;BME280;8878;-33.370;-70.552;2024-03-23T04:40:55;92176.50;;;18.54;82.11
17521;BME280;8878;-33.370;-70.552;2024-03-23T04:43:25;92181.25;;;18.57;79.28
17521;BME280;8878;-33.370;-70.552;2024-03-23T04:45:57;92177.00;;;18.56;80.15
17521;BME280;8878;-33.370;-70.552;2024-03-23T04:48:26;92179.47;;;18.53;81.75
17521;BME280;8878;-33.370;-70.552;2024-03-23T04:50:57;92180.09;;;18.41;82.87
17521;BME280;8878;-33.370;-70.552;2024-03-23T04:53:27;92180.88;;;18.33;83.50
17521;BME280;8878;-33.370;-70.552;2024-03-23T04:55:58;92175.97;;;18.26;85.41
17521;BME280;8878;-33.370;-70.552;2024-03-23T04:58:27;92173.31;;;18.18;84.93
17521;BME280;8878;-33.370;-70.552;2024-03-23T05:00:58;92182.72;;;18.15;87.00
17521;BME280;8878;-33.370;-70.552;2024-03-23T05:03:27;92181.09;;;18.06;88.04
17521;BME280;8878;-33.370;-70.552;2024-03-23T05:05:57;92177.50;;;18.02;87.97
17521;BME280;8878;-33.370;-70.552;2024-03-23T05:08:25;92190.66;;;17.98;89.06
17521;BME280;8878;-33.370;-70.552;2024-03-23T05:10:55;92191.28;;;17.95;88.06
17521;BME280;8878;-33.370;-70.552;2024-03-23T05:13:23;92191.91;;;17.92;85.12
17521;BME280;8878;-33.370;-70.552;2024-03-23T05:15:53;92196.34;;;17.96;83.61
17521;BME280;8878;-33.370;-70.552;2024-03-23T05:18:24;92189.28;;;18.00;82.66
17521;BME280;8878;-33.370;-70.552;2024-03-23T05:20:57;92186.13;;;17.98;81.84
17521;BME280;8878;-33.370;-70.552;2024-03-23T05:23:25;92192.25;;;17.99;81.43
17521;BME280;8878;-33.370;-70.552;2024-03-23T05:25:55;92184.09;;;17.95;83.15
17521;BME280;8878;-33.370;-70.552;2024-03-23T05:28:23;92178.56;;;17.92;81.91
17521;BME280;8878;-33.370;-70.552;2024-03-23T05:30:53;92184.34;;;17.85;82.07
17521;BME280;8878;-33.370;-70.552;2024-03-23T05:33:23;92179.66;;;17.82;81.29
17521;BME280;8878;-33.370;-70.552;2024-03-23T05:35:57;92183.09;;;17.83;82.21
17521;BME280;8878;-33.370;-70.552;2024-03-23T05:38:26;92182.91;;;17.79;84.05
17521;BME280;8878;-33.370;-70.552;2024-03-23T05:40:56;92174.88;;;17.71;85.20
17521;BME280;8878;-33.370;-70.552;2024-03-23T05:43:24;92179.88;;;17.64;85.69
17521;BME280;8878;-33.370;-70.552;2024-03-23T05:45:55;92186.09;;;17.59;86.47
17521;BME280;8878;-33.370;-70.552;2024-03-23T05:48:25;92181.06;;;17.57;84.05
17521;BME280;8878;-33.370;-70.552;2024-03-23T05:50:55;92182.66;;;17.58;83.40
17521;BME280;8878;-33.370;-70.552;2024-03-23T05:53:23;92183.38;;;17.50;83.10
17521;BME280;8878;-33.370;-70.552;2024-03-23T05:56:01;92168.78;;;17.48;81.08
17521;BME280;8878;-33.370;-70.552;2024-03-23T05:58:31;92173.34;;;17.47;81.30
17521;BME280;8878;-33.370;-70.552;2024-03-23T06:01:01;92168.91;;;17.43;81.02
17521;BME280;8878;-33.370;-70.552;2024-03-23T06:03:31;92165.59;;;17.37;81.25
17521;BME280;8878;-33.370;-70.552;2024-03-23T06:06:02;92171.22;;;17.36;79.36
17521;BME280;8878;-33.370;-70.552;2024-03-23T06:08:30;92176.56;;;17.36;79.18
17521;BME280;8878;-33.370;-70.552;2024-03-23T06:11:00;92168.22;;;17.29;83.89
17521;BME280;8878;-33.370;-70.552;2024-03-23T06:13:28;92164.41;;;17.21;84.86
17521;BME280;8878;-33.370;-70.552;2024-03-23T06:15:57;92176.59;;;17.13;83.50
17521;BME280;8878;-33.370;-70.552;2024-03-23T06:18:25;92178.78;;;17.11;85.04
17521;BME280;8878;-33.370;-70.552;2024-03-23T06:20:59;92177.31;;;17.05;83.84
17521;BME280;8878;-33.370;-70.552;2024-03-23T06:23:27;92181.41;;;17.03;82.64
17521;BME280;8878;-33.370;-70.552;2024-03-23T06:25:57;92188.47;;;17.07;82.25
17521;BME280;8878;-33.370;-70.552;2024-03-23T06:28:25;92194.16;;;17.14;83.16
17521;BME280;8878;-33.370;-70.552;2024-03-23T06:30:54;92188.34;;;17.12;85.08
17521;BME280;8878;-33.370;-70.552;2024-03-23T06:33:22;92192.16;;;17.20;86.09
17521;BME280;8878;-33.370;-70.552;2024-03-23T06:35:52;92188.41;;;17.21;86.16
17521;BME280;8878;-33.370;-70.552;2024-03-23T06:38:22;92194.66;;;17.16;87.10
17521;BME280;8878;-33.370;-70.552;2024-03-23T06:40:52;92192.94;;;17.20;86.93
17521;BME280;8878;-33.370;-70.552;2024-03-23T06:43:20;92186.03;;;17.19;88.04
17521;BME280;8878;-33.370;-70.552;2024-03-23T06:45:53;92187.94;;;17.19;86.55
17521;BME280;8878;-33.370;-70.552;2024-03-23T06:48:21;92191.91;;;17.30;80.85
17521;BME280;8878;-33.370;-70.552;2024-03-23T06:50:56;92200.41;;;17.32;87.17
17521;BME280;8878;-33.370;-70.552;2024-03-23T06:53:26;92200.84;;;17.26;82.32
17521;BME280;8878;-33.370;-70.552;2024-03-23T06:55:55;92193.94;;;17.25;85.86
17521;BME280;8878;-33.370;-70.552;2024-03-23T06:58:24;92198.13;;;17.17;85.21
17521;BME280;8878;-33.370;-70.552;2024-03-23T07:00:54;92190.41;;;17.15;85.59
17521;BME280;8878;-33.370;-70.552;2024-03-23T07:03:22;92194.81;;;17.20;83.43
17521;BME280;8878;-33.370;-70.552;2024-03-23T07:05:53;92197.63;;;17.15;86.28
17521;BME280;8878;-33.370;-70.552;2024-03-23T07:08:27;92191.16;;;17.07;90.00
17521;BME280;8878;-33.370;-70.552;2024-03-23T07:10:56;92177.47;;;17.00;89.76
17521;BME280;8878;-33.370;-70.552;2024-03-23T07:13:25;92176.59;;;16.91;90.84
17521;BME280;8878;-33.370;-70.552;2024-03-23T07:15:54;92176.00;;;16.94;91.23
17521;BME280;8878;-33.370;-70.552;2024-03-23T07:18:23;92180.41;;;16.99;91.49
17521;BME280;8878;-33.370;-70.552;2024-03-23T07:20:55;92184.38;;;17.01;90.86
17521;BME280;8878;-33.370;-70.552;2024-03-23T07:23:25;92184.84;;;17.03;90.95
17521;BME280;8878;-33.370;-70.552;2024-03-23T07:25:58;92180.47;;;17.07;91.46
17521;BME280;8878;-33.370;-70.552;2024-03-23T07:28:26;92175.59;;;17.01;92.98
17521;BME280;8878;-33.370;-70.552;2024-03-23T07:31:03;92171.97;;;16.97;94.26
17521;BME280;8878;-33.370;-70.552;2024-03-23T07:33:32;92175.72;;;16.96;94.63
17521;BME280;8878;-33.370;-70.552;2024-03-23T07:36:02;92178.50;;;16.91;94.15
17521;BME280;8878;-33.370;-70.552;2024-03-23T07:38:32;92175.16;;;16.85;94.89
17521;BME280;8878;-33.370;-70.552;2024-03-23T07:41:05;92173.13;;;16.82;95.94
17521;BME280;8878;-33.370;-70.552;2024-03-23T07:43:33;92164.63;;;16.80;96.47
17521;BME280;8878;-33.370;-70.552;2024-03-23T07:46:03;92169.59;;;16.73;96.47
17521;BME280;8878;-33.370;-70.552;2024-03-23T07:48:32;92177.50;;;16.64;98.11
17521;BME280;8878;-33.370;-70.552;2024-03-23T07:51:02;92175.13;;;16.63;96.84
17521;BME280;8878;-33.370;-70.552;2024-03-23T07:53:33;92171.88;;;16.66;95.57
17521;BME280;8878;-33.370;-70.552;2024-03-23T07:56:04;92169.22;;;16.66;95.60
17521;BME280;8878;-33.370;-70.552;2024-03-23T07:58:33;92158.06;;;16.64;94.38
17521;BME280;8878;-33.370;-70.552;2024-03-23T08:01:06;92159.66;;;16.65;93.91
17521;BME280;8878;-33.370;-70.552;2024-03-23T08:03:37;92159.47;;;16.61;92.93
17521;BME280;8878;-33.370;-70.552;2024-03-23T08:06:09;92156.41;;;16.54;92.22
17521;BME280;8878;-33.370;-70.552;2024-03-23T08:08:41;92153.47;;;16.42;93.17
17521;BME280;8878;-33.370;-70.552;2024-03-23T08:11:10;92157.47;;;16.31;93.01
17521;BME280;8878;-33.370;-70.552;2024-03-23T08:13:41;92143.38;;;16.30;94.36
17521;BME280;8878;-33.370;-70.552;2024-03-23T08:16:09;92143.16;;;16.40;92.39
17521;BME280;8878;-33.370;-70.552;2024-03-23T08:18:39;92132.25;;;16.51;91.03
17521;BME280;8878;-33.370;-70.552;2024-03-23T08:21:07;92133.66;;;16.48;87.40
17521;BME280;8878;-33.370;-70.552;2024-03-23T08:23:37;92134.91;;;16.51;86.24
17521;BME280;8878;-33.370;-70.552;2024-03-23T08:26:09;92136.75;;;16.64;87.37
17521;BME280;8878;-33.370;-70.552;2024-03-23T08:28:40;92136.38;;;16.57;86.20
17521;BME280;8878;-33.370;-70.552;2024-03-23T08:31:08;92143.09;;;16.54;85.74
17521;BME280;8878;-33.370;-70.552;2024-03-23T08:33:38;92147.41;;;16.64;85.75
17521;BME280;8878;-33.370;-70.552;2024-03-23T08:36:09;92149.19;;;16.68;85.44
17521;BME280;8878;-33.370;-70.552;2024-03-23T08:38:39;92149.63;;;16.62;85.52
17521;BME280;8878;-33.370;-70.552;2024-03-23T08:41:10;92150.69;;;16.61;84.74
17521;BME280;8878;-33.370;-70.552;2024-03-23T08:43:41;92155.41;;;16.64;85.92
17521;BME280;8878;-33.370;-70.552;2024-03-23T08:46:10;92159.94;;;16.63;85.63
17521;BME280;8878;-33.370;-70.552;2024-03-23T08:48:41;92158.88;;;16.51;86.45
17521;BME280;8878;-33.370;-70.552;2024-03-23T08:51:11;92158.50;;;16.43;86.41
17521;BME280;8878;-33.370;-70.552;2024-03-23T08:53:41;92159.59;;;16.42;86.56
17521;BME280;8878;-33.370;-70.552;2024-03-23T08:56:12;92162.59;;;16.41;87.40
17521;BME280;8878;-33.370;-70.552;2024-03-23T08:58:43;92156.56;;;16.35;87.34
17521;BME280;8878;-33.370;-70.552;2024-03-23T09:01:11;92163.66;;;16.40;86.86
17521;BME280;8878;-33.370;-70.552;2024-03-23T09:03:42;92163.69;;;16.26;87.37
17521;BME280;8878;-33.370;-70.552;2024-03-23T09:06:11;92174.66;;;16.11;88.27
17521;BME280;8878;-33.370;-70.552;2024-03-23T09:08:41;92165.59;;;16.12;88.05
17521;BME280;8878;-33.370;-70.552;2024-03-23T09:11:11;92171.63;;;16.04;88.69
17521;BME280;8878;-33.370;-70.552;2024-03-23T09:13:41;92173.22;;;16.05;88.27
17521;BME280;8878;-33.370;-70.552;2024-03-23T09:16:09;92178.81;;;16.03;88.45
17521;BME280;8878;-33.370;-70.552;2024-03-23T09:18:39;92175.75;;;16.10;92.39
17521;BME280;8878;-33.370;-70.552;2024-03-23T09:21:12;92177.34;;;16.11;89.28
17521;BME280;8878;-33.370;-70.552;2024-03-23T09:23:43;92178.91;;;16.12;92.77
17521;BME280;8878;-33.370;-70.552;2024-03-23T09:26:14;92179.50;;;16.09;93.93
17521;BME280;8878;-33.370;-70.552;2024-03-23T09:28:43;92175.25;;;16.08;96.30
17521;BME280;8878;-33.370;-70.552;2024-03-23T09:31:11;92190.94;;;16.10;97.12
17521;BME280;8878;-33.370;-70.552;2024-03-23T09:33:42;92193.38;;;16.06;98.99
17521;BME280;8878;-33.370;-70.552;2024-03-23T09:36:10;92184.25;;;15.98;99.82
17521;BME280;8878;-33.370;-70.552;2024-03-23T09:38:41;92191.06;;;15.91;97.85
17521;BME280;8878;-33.370;-70.552;2024-03-23T09:41:09;92195.66;;;15.85;96.22
17521;BME280;8878;-33.370;-70.552;2024-03-23T09:43:43;92185.03;;;15.85;94.73
17521;BME280;8878;-33.370;-70.552;2024-03-23T09:46:12;92187.41;;;15.87;94.43
17521;BME280;8878;-33.370;-70.552;2024-03-23T09:48:42;92196.38;;;15.91;93.60
17521;BME280;8878;-33.370;-70.552;2024-03-23T09:51:13;92192.31;;;15.93;94.66
17521;BME280;8878;-33.370;-70.552;2024-03-23T09:53:42;92201.19;;;15.89;100.00
17521;BME280;8878;-33.370;-70.552;2024-03-23T09:56:11;92199.72;;;15.83;100.00
17521;BME280;8878;-33.370;-70.552;2024-03-23T09:58:42;92201.38;;;15.79;95.79
17521;BME280;8878;-33.370;-70.552;2024-03-23T10:01:10;92208.19;;;15.85;94.78
17521;BME280;8878;-33.370;-70.552;2024-03-23T10:03:44;92206.53;;;15.89;96.43
17521;BME280;8878;-33.370;-70.552;2024-03-23T10:06:12;92214.00;;;15.87;94.84
17521;BME280;8878;-33.370;-70.552;2024-03-23T10:08:42;92214.50;;;15.89;94.74
17521;BME280;8878;-33.370;-70.552;2024-03-23T10:11:14;92208.38;;;15.88;93.36
17521;BME280;8878;-33.370;-70.552;2024-03-23T10:13:46;92210.25;;;15.88;93.62
17521;BME280;8878;-33.370;-70.552;2024-03-23T10:16:21;92210.25;;;15.88;95.07
17521;BME280;8878;-33.370;-70.552;2024-03-23T10:18:51;92208.78;;;15.82;97.27
17521;BME280;8878;-33.370;-70.552;2024-03-23T10:21:19;92219.22;;;15.78;97.11
17521;BME280;8878;-33.370;-70.552;2024-03-23T10:23:49;92213.59;;;15.80;93.73
17521;BME280;8878;-33.370;-70.552;2024-03-23T10:26:19;92218.34;;;15.83;93.14
17521;BME280;8878;-33.370;-70.552;2024-03-23T10:28:57;92214.09;;;15.82;95.99
17521;BME280;8878;-33.370;-70.552;2024-03-23T10:31:28;92211.63;;;15.72;99.45
17521;BME280;8878;-33.370;-70.552;2024-03-23T10:33:56;92213.88;;;15.64;99.66
17521;BME280;8878;-33.370;-70.552;2024-03-23T10:36:27;92202.00;;;15.62;97.64
17521;BME280;8878;-33.370;-70.552;2024-03-23T10:38:57;92204.16;;;15.60;97.46
17521;BME280;8878;-33.370;-70.552;2024-03-23T10:41:28;92205.72;;;15.61;96.79
17521;BME280;8878;-33.370;-70.552;2024-03-23T10:43:58;92200.59;;;15.64;96.99
17521;BME280;8878;-33.370;-70.552;2024-03-23T10:46:28;92203.34;;;15.59;96.58
17521;BME280;8878;-33.370;-70.552;2024-03-23T10:48:56;92201.19;;;15.61;97.93
17521;BME280;8878;-33.370;-70.552;2024-03-23T10:51:26;92198.63;;;15.56;99.90
17521;BME280;8878;-33.370;-70.552;2024-03-23T10:53:56;92199.22;;;15.53;98.75
17521;BME280;8878;-33.370;-70.552;2024-03-23T10:56:28;92192.81;;;15.54;99.90
17521;BME280;8878;-33.370;-70.552;2024-03-23T10:59:02;92191.78;;;15.50;97.72
17521;BME280;8878;-33.370;-70.552;2024-03-23T11:01:34;92191.50;;;15.52;99.10
17521;BME280;8878;-33.370;-70.552;2024-03-23T11:04:02;92195.47;;;15.54;98.78
17521;BME280;8878;-33.370;-70.552;2024-03-23T11:06:36;92196.56;;;15.53;98.90
17521;BME280;8878;-33.370;-70.552;2024-03-23T11:09:43;92203.56;;;15.63;100.00
17521;BME280;8878;-33.370;-70.552;2024-03-23T11:12:28;92204.25;;;15.69;100.00
17521;BME280;8878;-33.370;-70.552;2024-03-23T11:15:05;92202.47;;;15.64;97.21
17521;BME280;8878;-33.370;-70.552;2024-03-23T11:17:34;92213.41;;;15.62;99.62
17521;BME280;8878;-33.370;-70.552;2024-03-23T11:20:04;92221.41;;;15.62;97.48
17521;BME280;8878;-33.370;-70.552;2024-03-23T11:22:42;92221.88;;;15.64;98.51
17521;BME280;8878;-33.370;-70.552;2024-03-23T11:25:17;92224.63;;;15.73;100.00
17521;BME280;8878;-33.370;-70.552;2024-03-23T11:27:48;92228.19;;;15.82;98.40
17521;BME280;8878;-33.370;-70.552;2024-03-23T11:30:20;92227.19;;;15.92;99.99
17521;BME280;8878;-33.370;-70.552;2024-03-23T11:32:50;92226.72;;;15.90;100.00
17521;BME280;8878;-33.370;-70.552;2024-03-23T11:35:27;92241.59;;;15.91;100.00
17521;BME280;8878;-33.370;-70.552;2024-03-23T11:38:09;92234.88;;;15.93;100.00
17521;BME280;8878;-33.370;-70.552;2024-03-23T11:40:39;92241.28;;;15.92;99.92
17521;BME280;8878;-33.370;-70.552;2024-03-23T11:43:08;92242.00;;;15.98;99.47
17521;BME280;8878;-33.370;-70.552;2024-03-23T11:45:42;92238.72;;;16.01;99.14
17521;BME280;8878;-33.370;-70.552;2024-03-23T11:48:12;92233.81;;;16.08;97.86
17521;BME280;8878;-33.370;-70.552;2024-03-23T11:50:42;92241.31;;;16.20;94.07
17521;BME280;8878;-33.370;-70.552;2024-03-23T11:53:14;92240.78;;;16.31;94.45
17521;BME280;8878;-33.370;-70.552;2024-03-23T11:55:46;92252.22;;;16.45;95.52
17521;BME280;8878;-33.370;-70.552;2024-03-23T11:58:15;92254.97;;;16.54;98.00
17521;BME280;8878;-33.370;-70.552;2024-03-23T12:00:52;92260.88;;;16.51;91.06
17521;BME280;8878;-33.370;-70.552;2024-03-23T12:03:20;92258.88;;;16.57;87.82
17521;BME280;8878;-33.370;-70.552;2024-03-23T12:05:53;92253.75;;;16.74;89.64
17521;BME280;8878;-33.370;-70.552;2024-03-23T12:08:25;92256.88;;;16.90;86.20
17521;BME280;8878;-33.370;-70.552;2024-03-23T12:11:06;92267.34;;;17.08;89.39
17521;BME280;8878;-33.370;-70.552;2024-03-23T12:13:34;92272.13;;;17.20;80.11
17521;BME280;8878;-33.370;-70.552;2024-03-23T12:16:13;92269.31;;;17.39;75.36
17521;BME280;8878;-33.370;-70.552;2024-03-23T12:18:42;92272.56;;;17.58;73.51
17521;BME280;8878;-33.370;-70.552;2024-03-23T12:21:12;92273.78;;;17.74;74.85
17521;BME280;8878;-33.370;-70.552;2024-03-23T12:23:41;92276.19;;;17.84;65.99
17521;BME280;8878;-33.370;-70.552;2024-03-23T12:26:11;92278.75;;;17.98;62.39
17521;BME280;8878;-33.370;-70.552;2024-03-23T12:28:40;92278.50;;;18.08;62.00
17521;BME280;8878;-33.370;-70.552;2024-03-23T12:31:08;92284.66;;;18.17;61.50
17521;BME280;8878;-33.370;-70.552;2024-03-23T12:33:41;92275.41;;;18.23;60.98
17521;BME280;8878;-33.370;-70.552;2024-03-23T12:36:11;92276.53;;;18.31;61.45
17521;BME280;8878;-33.370;-70.552;2024-03-23T12:38:39;92282.38;;;18.33;62.88
17521;BME280;8878;-33.370;-70.552;2024-03-23T12:41:10;92284.56;;;18.31;62.39
17521;BME280;8878;-33.370;-70.552;2024-03-23T12:43:38;92294.16;;;18.32;63.94
17521;BME280;8878;-33.370;-70.552;2024-03-23T12:46:08;92283.91;;;18.34;64.13
17521;BME280;8878;-33.370;-70.552;2024-03-23T12:48:40;92291.03;;;18.38;63.08
17521;BME280;8878;-33.370;-70.552;2024-03-23T12:51:10;92293.72;;;18.47;63.88
17521;BME280;8878;-33.370;-70.552;2024-03-23T12:53:38;92291.22;;;18.51;62.81
17521;BME280;8878;-33.370;-70.552;2024-03-23T12:56:07;92293.75;;;18.56;62.78
17521;BME280;8878;-33.370;-70.552;2024-03-23T12:58:39;92298.66;;;18.62;64.87
17521;BME280;8878;-33.370;-70.552;2024-03-23T13:01:09;92287.84;;;18.67;65.07
17521;BME280;8878;-33.370;-70.552;2024-03-23T13:03:37;92290.34;;;18.72;62.66
17521;BME280;8878;-33.370;-70.552;2024-03-23T13:06:09;92291.78;;;18.78;62.87
17521;BME280;8878;-33.370;-70.552;2024-03-23T13:08:38;92287.69;;;18.81;62.71
17521;BME280;8878;-33.370;-70.552;2024-03-23T13:11:07;92294.28;;;18.84;63.57
17521;BME280;8878;-33.370;-70.552;2024-03-23T13:13:37;92287.06;;;18.84;62.95
17521;BME280;8878;-33.370;-70.552;2024-03-23T13:16:07;92280.78;;;18.89;59.69
17521;BME280;8878;-33.370;-70.552;2024-03-23T13:18:35;92293.84;;;18.99;61.31
17521;BME280;8878;-33.370;-70.552;2024-03-23T13:21:05;92286.75;;;19.11;63.70
17521;BME280;8878;-33.370;-70.552;2024-03-23T13:23:35;92293.22;;;19.19;63.72
17521;BME280;8878;-33.370;-70.552;2024-03-23T13:26:06;92296.69;;;19.28;62.16
17521;BME280;8878;-33.370;-70.552;2024-03-23T13:28:35;92289.75;;;19.44;61.98
17521;BME280;8878;-33.370;-70.552;2024-03-23T13:31:04;92286.47;;;19.47;59.65
17521;BME280;8878;-33.370;-70.552;2024-03-23T13:33:33;92297.97;;;19.57;59.01
17521;BME280;8878;-33.370;-70.552;2024-03-23T13:36:02;92295.44;;;19.60;58.59
17521;BME280;8878;-33.370;-70.552;2024-03-23T13:38:33;92304.56;;;19.68;58.45
17521;BME280;8878;-33.370;-70.552;2024-03-23T13:41:02;92299.19;;;19.76;60.43
17521;BME280;8878;-33.370;-70.552;2024-03-23T13:43:33;92305.94;;;19.82;58.20
17521;BME280;8878;-33.370;-70.552;2024-03-23T13:46:01;92306.72;;;19.83;55.52